• Join FlightAware (Why Join?)
  • Login
  • US Flag 
07:48PM EST


 

Airport Tracker/Info


-or-


 

Live Flight TrackerFlight Track Log ✈ SWA3675 ✈ 29-Apr-2013 ✈ KBWI - KORF

Flight Track Log - Related Links

Times and Time Zones

All times are in EDT time to prevent confusion due to time zone crossing. See the SWA3675 flight status page for this flight to view local times or setup timezone preferences in your user account.

Time Position Orientation Groundspeed Altitude Reporting Facility
EDT Latitude Longitude Course Direction KTS MPH feet Rate Location/Type
08:10PM 39.1167 -76.6167 142° Southeast 197 227 3,600  Level Potomac TRACON
08:11PM 39.0500 -76.5667 150° Southeast 251 289 6,300 3,360 Climbing Potomac TRACON
08:12PM 39.0000 -76.5167 142° Southeast 281 323 10,100 2,280 Climbing Potomac TRACON
08:14PM 38.8056 -76.5186 180° South 284 327 14,000 1,080 Climbing Washington Center
08:15PM 38.7278 -76.5842 213° Southwest 303 349 14,000  Level Washington Center
08:16PM 38.6481 -76.6522 214° Southwest 328 377 14,000  Level Washington Center
08:17PM 38.5564 -76.6483 178° South 324 373 14,000  Level Washington Center
08:18PM 38.4753 -76.6233 166° South 317 365 14,000  Level Washington Center
08:19PM 38.3817 -76.5928 166° South 331 381 14,000  Level Washington Center
08:20PM 38.2800 -76.5492 161° South 337 388 14,000  Level Washington Center
08:21PM 38.1864 -76.5189 166° South 337 388 14,000  Level Washington Center
08:22PM 38.0947 -76.4889 166° South 342 394 14,000  Level Washington Center
08:23PM 38.0011 -76.4586 166° South 342 394 14,000  Level Washington Center
08:24PM 37.9075 -76.4261 165° South 342 394 14,000  Level Washington Center
08:25PM 37.8514 -76.4122 169° South 347 399 14,000  Level Washington Center
08:25PM 37.8158 -76.3961 160° South 342 394 14,000 -840 Level Washington Center
08:26PM 37.7222 -76.3636 165° South 342 394 12,900 -1,560 Descending Washington Center
08:27PM 37.6328 -76.3339 165° South 342 394 10,900 -1,440 Descending Washington Center
08:28PM 37.5475 -76.3200 173° South 331 381 10,000 -480 Descending Washington Center
08:29PM 37.4703 -76.3061 172° South 309 356 10,000  Level Washington Center
08:30PM 37.3911 -76.2925 172° South 291 335 10,000 -780 Level Washington Center
08:31PM 37.3139 -76.2786 172° South 291 335 8,500 -1,440 Descending Washington Center
08:32PM 37.2369 -76.2650 172° South 291 335 7,100 -1,380 Descending Washington Center
08:33PM 37.1619 -76.2511 172° South 291 335 5,800 -1,080 Descending Washington Center
08:34PM 37.0889 -76.2375 172° South 279 321 5,000 -420 Descending Washington Center
08:35PM 36.9994 -76.2239 173° South 267 307 5,000 -540 Level Washington Center
08:36PM 36.9367 -76.2597 205° Southwest 258 297 3,800 -1,200 Descending Washington Center